Time;durP1;ratioP1;P1;durP2;ratioP2;P2;SDS_P1;SDS_P2;PMS_P1;PMS_P2;Temp;Humidity;BMP_temperature;BMP_pressure;BME280_temperature;BME280_humidity;BME280_pressure;Samples;Min_cycle;Max_cycle;Signal;HPM_P1;HPM_P2
2023/10/29 00:02:22;;;;;;;0.70;0.70;;;18.90;77.00;;;;;;5125867;27;43926;-72
2023/10/29 00:04:50;;;;;;;0.80;0.80;;;18.90;77.10;;;;;;5130653;27;43426;-72
2023/10/29 00:07:18;;;;;;;0.70;0.70;;;18.90;77.10;;;;;;5130163;27;43930;-72
2023/10/29 00:09:48;;;;;;;0.70;0.70;;;18.90;77.50;;;;;;5129954;27;43789;-72
2023/10/29 00:12:16;;;;;;;0.70;0.70;;;19.00;77.40;;;;;;5128097;27;43477;-72
2023/10/29 00:14:44;;;;;;;0.63;0.63;;;19.10;77.00;;;;;;5124660;27;43402;-72
2023/10/29 00:17:12;;;;;;;0.70;0.70;;;19.20;76.50;;;;;;5133014;27;43802;-70
2023/10/29 00:19:40;;;;;;;0.60;0.60;;;19.30;76.00;;;;;;5136291;27;43402;-71
2023/10/29 00:22:08;;;;;;;0.70;0.70;;;19.40;75.90;;;;;;5136303;27;43484;-70
2023/10/29 00:24:36;;;;;;;0.63;0.63;;;19.30;75.70;;;;;;5134974;27;43784;-70
2023/10/29 00:27:06;;;;;;;0.67;0.67;;;19.30;75.90;;;;;;5129483;27;45277;-70
2023/10/29 00:29:34;;;;;;;0.73;0.73;;;19.20;76.00;;;;;;5133710;27;44747;-70
2023/10/29 00:32:02;;;;;;;0.90;0.90;;;19.10;76.50;;;;;;5134943;27;43433;-70
2023/10/29 00:34:30;;;;;;;0.60;0.60;;;19.10;76.70;;;;;;5134500;27;43551;-70
2023/10/29 00:36:58;;;;;;;0.60;0.60;;;19.10;76.60;;;;;;5133708;27;46148;-70
2023/10/29 00:39:26;;;;;;;0.60;0.60;;;19.10;76.70;;;;;;5133428;27;44879;-70
2023/10/29 00:41:54;;;;;;;0.53;0.53;;;19.00;76.70;;;;;;5134644;27;43525;-70
2023/10/29 00:44:23;;;;;;;0.60;0.60;;;19.00;77.10;;;;;;5133484;27;44090;-70
2023/10/29 00:46:51;;;;;;;0.50;0.50;;;19.00;77.20;;;;;;5131640;27;45277;-68
2023/10/29 00:49:19;;;;;;;0.70;0.70;;;19.00;77.00;;;;;;5128932;27;44667;-68
2023/10/29 00:51:47;;;;;;;0.67;0.67;;;19.00;77.00;;;;;;5126625;27;43386;-68
2023/10/29 00:54:15;;;;;;;0.67;0.67;;;18.90;76.90;;;;;;5128871;27;43470;-69
2023/10/29 00:56:44;;;;;;;0.73;0.73;;;19.00;77.20;;;;;;5125815;27;45953;-68
2023/10/29 00:59:12;;;;;;;0.80;0.80;;;18.90;77.50;;;;;;5129799;27;43420;-68
2023/10/29 01:01:41;;;;;;;0.70;0.70;;;19.00;77.20;;;;;;5128941;27;43433;-68
2023/10/29 01:04:09;;;;;;;0.70;0.70;;;19.10;76.80;;;;;;5129895;27;43316;-68
2023/10/29 01:06:38;;;;;;;0.80;0.80;;;19.20;76.60;;;;;;5128479;27;45692;-68
2023/10/29 01:09:06;;;;;;;0.70;0.70;;;19.20;76.30;;;;;;5130031;27;43339;-68
2023/10/29 01:11:34;;;;;;;0.80;0.80;;;19.20;76.70;;;;;;5126326;27;43454;-68
2023/10/29 01:14:03;;;;;;;0.77;0.77;;;19.20;76.70;;;;;;5128750;27;43399;-68
2023/10/29 01:16:31;;;;;;;0.70;0.70;;;19.20;76.50;;;;;;5131753;27;45670;-68
2023/10/29 01:19:00;;;;;;;0.60;0.60;;;19.10;76.40;;;;;;5131424;27;44538;-68
2023/10/29 01:21:29;;;;;;;0.60;0.60;;;19.10;76.50;;;;;;5132310;27;43358;-68
2023/10/29 01:23:57;;;;;;;0.60;0.60;;;19.00;76.60;;;;;;5132579;27;43969;-68
2023/10/29 01:26:25;;;;;;;0.67;0.67;;;19.00;77.10;;;;;;5123151;27;45751;-71
2023/10/29 01:28:53;;;;;;;0.80;0.80;;;19.10;77.10;;;;;;5132704;27;43349;-71
2023/10/29 01:31:21;;;;;;;0.80;0.80;;;19.00;76.90;;;;;;5130879;27;43371;-72
2023/10/29 01:33:49;;;;;;;0.50;0.50;;;19.00;76.90;;;;;;5131274;27;43835;-71
2023/10/29 01:36:18;;;;;;;0.70;0.70;;;19.00;77.00;;;;;;5131365;27;44150;-72
2023/10/29 01:38:46;;;;;;;0.67;0.67;;;19.00;77.30;;;;;;5129767;27;44401;-72
2023/10/29 01:41:14;;;;;;;0.60;0.60;;;19.00;77.60;;;;;;5131141;27;43421;-72
2023/10/29 01:43:42;;;;;;;0.60;0.60;;;19.00;77.20;;;;;;5131349;27;43521;-71
2023/10/29 01:46:10;;;;;;;0.60;0.60;;;19.20;76.80;;;;;;5130256;27;45730;-72
2023/10/29 01:48:38;;;;;;;0.77;0.60;;;19.30;76.30;;;;;;5125037;27;45064;-72
2023/10/29 01:51:07;;;;;;;0.53;0.53;;;19.40;75.90;;;;;;5132403;27;43376;-72
2023/10/29 01:53:36;;;;;;;0.50;0.50;;;19.40;75.80;;;;;;5131166;27;43374;-72
2023/10/29 01:56:08;;;;;;;0.60;0.60;;;19.30;75.80;;;;;;5130096;27;45865;-72
2023/10/29 01:58:38;;;;;;;0.50;0.50;;;19.20;75.90;;;;;;5131688;27;43647;-68
2023/10/29 02:01:10;;;;;;;0.60;0.60;;;19.20;76.10;;;;;;5131569;27;43496;-69
2023/10/29 02:03:38;;;;;;;0.60;0.60;;;19.10;77.30;;;;;;5131182;27;43641;-68
2023/10/29 02:06:16;;;;;;;0.70;0.70;;;19.10;76.90;;;;;;5130963;27;44828;-67
2023/10/29 02:08:46;;;;;;;0.53;0.53;;;19.10;76.70;;;;;;5124654;27;44359;-68
2023/10/29 02:11:15;;;;;;;0.57;0.57;;;19.00;76.70;;;;;;5128329;27;43987;-67
2023/10/29 02:13:44;;;;;;;0.60;0.60;;;19.00;76.80;;;;;;5132923;27;43310;-67
2023/10/29 02:16:12;;;;;;;0.60;0.60;;;19.00;77.20;;;;;;5130470;27;45890;-67
2023/10/29 02:18:40;;;;;;;0.67;0.67;;;19.00;77.30;;;;;;5130412;27;44844;-68
2023/10/29 02:21:08;;;;;;;0.60;0.60;;;19.10;77.10;;;;;;5127913;27;43465;-67
2023/10/29 02:23:37;;;;;;;0.83;0.60;;;19.20;76.70;;;;;;5131426;27;43424;-68
2023/10/29 02:26:05;;;;;;;0.80;0.80;;;19.20;76.50;;;;;;5123709;27;45718;-68
2023/10/29 02:28:33;;;;;;;0.63;0.63;;;19.20;76.40;;;;;;5132349;27;43760;-68
2023/10/29 02:31:01;;;;;;;0.60;0.60;;;19.10;76.70;;;;;;5130668;27;43445;-68
2023/10/29 02:33:30;;;;;;;0.50;0.50;;;19.10;76.70;;;;;;5131128;27;43567;-69
2023/10/29 02:35:58;;;;;;;0.60;0.60;;;19.10;76.60;;;;;;5125743;27;45383;-67
2023/10/29 02:38:26;;;;;;;0.60;0.60;;;19.10;76.60;;;;;;5130913;27;44405;-67
2023/10/29 02:40:56;;;;;;;0.70;0.70;;;19.00;76.60;;;;;;5125329;27;43461;-67
2023/10/29 02:43:24;;;;;;;0.70;0.70;;;19.00;77.00;;;;;;5127339;27;43342;-69
2023/10/29 02:45:52;;;;;;;0.63;0.63;;;19.00;77.20;;;;;;5130215;27;46190;-68
2023/10/29 02:48:20;;;;;;;0.70;0.70;;;19.00;77.00;;;;;;5130640;27;45290;-68
2023/10/29 02:50:49;;;;;;;0.60;0.60;;;19.00;77.00;;;;;;5125322;27;43449;-67
2023/10/29 02:53:17;;;;;;;0.50;0.50;;;19.00;77.10;;;;;;5126500;27;43545;-68
2023/10/29 02:55:45;;;;;;;0.80;0.80;;;18.90;77.10;;;;;;5130117;27;44725;-68
2023/10/29 02:58:14;;;;;;;0.70;0.70;;;18.90;77.50;;;;;;5126784;27;43461;-67
2023/10/29 03:00:42;;;;;;;0.60;0.60;;;19.00;77.50;;;;;;5130673;27;43529;-67
2023/10/29 03:03:10;;;;;;;0.50;0.50;;;19.10;77.10;;;;;;5130502;27;43552;-67
2023/10/29 03:05:39;;;;;;;0.60;0.60;;;19.10;76.70;;;;;;5129081;27;45819;-67
2023/10/29 03:08:23;;;;;;;0.50;0.50;;;19.20;76.50;;;;;;5131249;27;43399;-71
2023/10/29 03:10:52;;;;;;;0.80;0.80;;;19.10;76.40;;;;;;5129999;27;43701;-71
2023/10/29 03:13:21;;;;;;;0.57;0.57;;;19.10;76.80;;;;;;5130267;27;43936;-71
2023/10/29 03:15:49;;;;;;;0.60;0.60;;;19.10;76.60;;;;;;5128500;27;45764;-71
2023/10/29 03:18:17;;;;;;;0.53;0.53;;;19.10;76.60;;;;;;5128661;27;44810;-71
2023/10/29 03:20:45;;;;;;;0.57;0.57;;;19.10;76.60;;;;;;5129200;27;43896;-70
2023/10/29 03:23:13;;;;;;;0.50;0.50;;;19.00;76.60;;;;;;5129964;27;44003;-71
2023/10/29 03:25:43;;;;;;;0.70;0.70;;;19.00;77.00;;;;;;5130287;27;44142;-72
2023/10/29 03:28:11;;;;;;;0.70;0.70;;;19.00;77.10;;;;;;5128486;27;44949;-71
2023/10/29 03:30:40;;;;;;;0.60;0.60;;;19.00;76.90;;;;;;5128983;27;43414;-71
2023/10/29 03:33:08;;;;;;;0.40;0.40;;;19.00;76.90;;;;;;5127255;27;43427;-70
2023/10/29 03:35:38;;;;;;;0.50;0.50;;;19.00;76.90;;;;;;5129064;27;46112;-72
2023/10/29 03:38:07;;;;;;;0.70;0.70;;;18.90;77.20;;;;;;5128495;27;45237;-72
2023/10/29 03:40:37;;;;;;;0.60;0.60;;;18.90;77.20;;;;;;5130060;27;43437;-71
2023/10/29 03:43:05;;;;;;;0.70;0.70;;;18.90;77.00;;;;;;5129480;27;43672;-72
2023/10/29 03:45:34;;;;;;;0.50;0.50;;;18.90;77.00;;;;;;5127056;27;45357;-72
2023/10/29 03:48:03;;;;;;;0.53;0.53;;;18.90;77.00;;;;;;5132959;27;44680;-69
2023/10/29 03:50:31;;;;;;;0.70;0.70;;;18.90;77.30;;;;;;5134535;27;43548;-70
2023/10/29 03:52:59;;;;;;;0.60;0.60;;;18.90;77.40;;;;;;5136561;27;43939;-70
2023/10/29 03:55:27;;;;;;;0.57;0.57;;;19.10;77.20;;;;;;5133134;27;44079;-69
2023/10/29 03:57:55;;;;;;;0.70;0.70;;;19.20;76.70;;;;;;5124390;27;44674;-70
2023/10/29 04:00:24;;;;;;;0.60;0.60;;;19.30;76.10;;;;;;5132604;27;43485;-70
2023/10/29 04:02:52;;;;;;;0.60;0.60;;;19.40;75.90;;;;;;5133641;27;43520;-70
2023/10/29 04:05:22;;;;;;;0.53;0.53;;;19.40;75.70;;;;;;5133515;27;46125;-69
2023/10/29 04:07:50;;;;;;;0.60;0.60;;;19.30;75.70;;;;;;5132851;27;44977;-69
2023/10/29 04:10:18;;;;;;;0.67;0.67;;;19.30;75.80;;;;;;5134818;27;43520;-69
2023/10/29 04:12:46;;;;;;;0.80;0.80;;;19.20;76.10;;;;;;5133540;27;43489;-69
2023/10/29 04:15:14;;;;;;;0.63;0.63;;;19.20;76.60;;;;;;5131761;27;45710;-69
2023/10/29 04:17:42;;;;;;;0.63;0.63;;;19.10;76.50;;;;;;5130505;27;45085;-69
2023/10/29 04:20:10;;;;;;;0.60;0.60;;;19.10;76.50;;;;;;5129912;27;43460;-70
2023/10/29 04:22:42;;;;;;;0.70;0.70;;;19.10;76.60;;;;;;5129895;27;43512;-70
2023/10/29 04:25:10;;;;;;;0.93;0.93;;;19.10;76.70;;;;;;5129213;27;43618;-70
2023/10/29 04:27:38;;;;;;;1.00;1.00;;;19.00;77.00;;;;;;5122454;27;44978;-71
2023/10/29 04:30:07;;;;;;;1.20;1.20;;;19.00;77.20;;;;;;5128902;27;43361;-69
2023/10/29 04:32:35;;;;;;;1.20;1.20;;;19.10;76.90;;;;;;5129481;27;43420;-69
2023/10/29 04:35:03;;;;;;;1.67;1.57;;;19.20;76.70;;;;;;5128669;27;43902;-69
2023/10/29 04:37:31;;;;;;;1.30;1.30;;;19.10;76.40;;;;;;5124359;27;43990;-70
2023/10/29 04:40:02;;;;;;;2.03;1.37;;;19.10;76.50;;;;;;5129712;27;43357;-70
2023/10/29 04:42:30;;;;;;;1.60;1.50;;;19.10;76.80;;;;;;5125435;27;43479;-69
2023/10/29 04:44:58;;;;;;;1.30;1.20;;;19.10;76.60;;;;;;5129538;27;43868;-70
2023/10/29 04:47:26;;;;;;;1.30;1.20;;;19.10;76.60;;;;;;5127557;27;45012;-70
2023/10/29 04:49:54;;;;;;;1.30;1.30;;;19.10;76.60;;;;;;5128466;27;43478;-70
2023/10/29 04:52:22;;;;;;;1.47;1.37;;;19.00;76.60;;;;;;5130000;27;43478;-69
2023/10/29 04:54:50;;;;;;;1.50;1.40;;;19.00;77.10;;;;;;5129475;27;44956;-70
2023/10/29 04:57:21;;;;;;;1.40;1.27;;;19.00;77.00;;;;;;5122328;27;43738;-71
2023/10/29 04:59:49;;;;;;;1.50;1.40;;;19.00;76.90;;;;;;5123084;27;43443;-71
2023/10/29 05:02:17;;;;;;;1.40;1.40;;;19.00;76.80;;;;;;5121733;27;43924;-71
2023/10/29 05:04:45;;;;;;;1.40;1.40;;;19.00;76.90;;;;;;5126715;27;43608;-71
2023/10/29 05:07:13;;;;;;;1.60;1.50;;;18.90;76.90;;;;;;5121077;27;44319;-71
2023/10/29 05:09:41;;;;;;;1.70;1.60;;;18.90;77.30;;;;;;5121950;27;43396;-71
2023/10/29 05:12:09;;;;;;;1.70;1.60;;;19.00;77.30;;;;;;5126566;27;43524;-71
2023/10/29 05:14:39;;;;;;;1.73;1.63;;;19.10;76.90;;;;;;5127692;27;45335;-71
2023/10/29 05:17:07;;;;;;;1.73;1.63;;;19.20;76.60;;;;;;5128568;27;43442;-71
2023/10/29 05:19:35;;;;;;;1.53;1.53;;;19.20;76.30;;;;;;5129188;27;43346;-71
2023/10/29 05:22:03;;;;;;;1.67;1.57;;;19.20;76.20;;;;;;5129525;27;43424;-71
2023/10/29 05:24:31;;;;;;;1.30;1.20;;;19.20;76.60;;;;;;5125309;27;43597;-71
2023/10/29 05:26:59;;;;;;;1.50;1.40;;;19.20;76.50;;;;;;5125159;27;45635;-74
2023/10/29 05:29:28;;;;;;;1.37;1.30;;;19.20;76.30;;;;;;5128332;27;43454;-70
2023/10/29 05:31:57;;;;;;;1.33;1.30;;;19.20;76.40;;;;;;5124706;27;43337;-70
2023/10/29 05:34:25;;;;;;;1.53;1.53;;;19.10;76.50;;;;;;5122166;27;43990;-70
2023/10/29 05:36:53;;;;;;;1.73;1.60;;;19.10;76.70;;;;;;5128391;27;43430;-70
2023/10/29 05:39:21;;;;;;;1.43;1.43;;;19.10;77.10;;;;;;5125432;27;43364;-70
2023/10/29 05:41:49;;;;;;;1.50;1.50;;;19.10;77.00;;;;;;5129060;27;43451;-70
2023/10/29 05:44:17;;;;;;;1.63;1.50;;;19.10;76.90;;;;;;5122427;27;43608;-70
2023/10/29 05:46:45;;;;;;;1.50;1.40;;;19.00;76.80;;;;;;5128530;27;43414;-70
2023/10/29 05:49:15;;;;;;;1.33;1.30;;;19.00;76.90;;;;;;5128729;27;43459;-70
2023/10/29 05:51:43;;;;;;;1.30;1.30;;;19.00;77.30;;;;;;5125261;27;43845;-70
2023/10/29 05:54:11;;;;;;;1.80;1.70;;;19.00;77.20;;;;;;5128555;27;43916;-70
2023/10/29 05:56:39;;;;;;;1.77;1.67;;;19.10;76.80;;;;;;5123723;27;43444;-70
2023/10/29 05:59:07;;;;;;;1.70;1.60;;;19.30;76.40;;;;;;5128727;27;43543;-70
2023/10/29 06:01:38;;;;;;;1.47;1.43;;;19.30;76.60;;;;;;5125482;27;43398;-70
2023/10/29 06:04:06;;;;;;;1.93;1.80;;;19.40;75.70;;;;;;5131420;27;43607;-69
2023/10/29 06:06:36;;;;;;;1.53;1.43;;;19.30;75.70;;;;;;5130687;27;44108;-69
2023/10/29 06:09:04;;;;;;;1.33;1.30;;;19.30;75.80;;;;;;5137320;27;43392;-69
2023/10/29 06:11:50;;;;;;;1.60;1.50;;;19.20;76.00;;;;;;5135216;27;43633;-70
2023/10/29 06:14:18;;;;;;;1.63;1.53;;;19.20;76.50;;;;;;5135604;27;45344;-69
2023/10/29 06:16:46;;;;;;;1.60;1.50;;;19.10;76.60;;;;;;5137730;27;43350;-69
2023/10/29 06:19:14;;;;;;;1.60;1.50;;;19.10;76.50;;;;;;5137562;27;43401;-70
2023/10/29 06:21:43;;;;;;;1.60;1.60;;;19.10;76.60;;;;;;5133587;27;44153;-70
2023/10/29 06:24:12;;;;;;;1.30;1.30;;;19.10;76.60;;;;;;5136517;27;43619;-71
2023/10/29 06:26:40;;;;;;;1.50;1.50;;;19.00;76.70;;;;;;5135941;27;44991;-71
2023/10/29 06:29:08;;;;;;;1.40;1.40;;;19.00;77.10;;;;;;5131497;27;43482;-70
2023/10/29 06:31:36;;;;;;;1.23;1.23;;;19.00;76.90;;;;;;5136448;27;43560;-70
2023/10/29 06:34:04;;;;;;;1.63;1.53;;;19.00;76.80;;;;;;5136349;27;43890;-70
2023/10/29 06:36:33;;;;;;;1.40;1.30;;;19.00;77.50;;;;;;5135643;27;43424;-71
2023/10/29 06:39:03;;;;;;;1.70;1.60;;;19.00;76.90;;;;;;5136314;27;43468;-70
2023/10/29 06:41:31;;;;;;;1.50;1.50;;;18.90;77.10;;;;;;5135788;27;43420;-70
2023/10/29 06:43:59;;;;;;;1.73;1.63;;;19.00;77.40;;;;;;5134562;27;46009;-70
2023/10/29 06:46:27;;;;;;;1.77;1.67;;;19.10;77.20;;;;;;5136447;27;43416;-70
2023/10/29 06:48:55;;;;;;;1.80;1.70;;;19.20;77.30;;;;;;5130316;27;43436;-70
2023/10/29 06:51:23;;;;;;;1.40;1.30;;;19.30;76.10;;;;;;5137168;27;43351;-70
2023/10/29 06:53:51;;;;;;;1.50;1.50;;;19.40;75.90;;;;;;5135323;27;44625;-70
2023/10/29 06:56:20;;;;;;;1.70;1.30;;;19.40;75.70;;;;;;5131393;27;43918;-70
2023/10/29 06:58:48;;;;;;;1.30;1.30;;;19.30;75.70;;;;;;5134053;27;43517;-70
2023/10/29 07:01:16;;;;;;;1.43;1.33;;;19.30;75.90;;;;;;5136502;27;43483;-70
2023/10/29 07:03:44;;;;;;;1.60;1.50;;;19.20;76.00;;;;;;5135761;27;43977;-70
2023/10/29 07:06:15;;;;;;;1.30;1.30;;;19.20;76.60;;;;;;5136126;27;43480;-70
2023/10/29 07:08:45;;;;;;;1.70;1.63;;;19.10;76.60;;;;;;5135145;27;43359;-70
2023/10/29 07:11:13;;;;;;;1.50;1.40;;;19.10;77.20;;;;;;5137500;27;43536;-70
2023/10/29 07:13:42;;;;;;;1.37;1.37;;;19.10;76.60;;;;;;5135032;27;44067;-70
2023/10/29 07:16:11;;;;;;;1.33;1.23;;;19.10;76.70;;;;;;5132024;27;44703;-70
2023/10/29 07:18:39;;;;;;;1.43;1.43;;;19.00;77.00;;;;;;5131611;27;43364;-66
2023/10/29 07:21:07;;;;;;;1.40;1.40;;;19.00;77.70;;;;;;5127299;27;43434;-68
2023/10/29 07:23:35;;;;;;;1.30;1.30;;;19.00;76.90;;;;;;5130649;27;43967;-68
2023/10/29 07:26:03;;;;;;;1.37;1.37;;;19.00;76.80;;;;;;5128661;27;43472;-68
2023/10/29 07:28:31;;;;;;;1.63;1.53;;;19.00;76.90;;;;;;5131428;27;43471;-68
2023/10/29 07:31:01;;;;;;;1.60;1.50;;;19.00;77.10;;;;;;5128121;27;43496;-68
2023/10/29 07:33:29;;;;;;;1.47;1.40;;;19.00;77.40;;;;;;5131231;27;43614;-68
2023/10/29 07:35:57;;;;;;;1.50;1.50;;;19.10;77.10;;;;;;5131282;27;43424;-68
2023/10/29 07:38:25;;;;;;;1.33;1.33;;;19.20;76.70;;;;;;5130904;27;43408;-68
2023/10/29 07:40:53;;;;;;;1.67;1.57;;;19.30;76.20;;;;;;5131708;27;43982;-68
2023/10/29 07:43:21;;;;;;;1.70;1.60;;;19.30;76.00;;;;;;5131293;27;43880;-68
2023/10/29 07:45:51;;;;;;;1.40;1.40;;;19.30;75.80;;;;;;5126625;27;44886;-68
2023/10/29 07:48:21;;;;;;;1.30;1.30;;;19.30;75.90;;;;;;5130682;27;43862;-72
2023/10/29 07:50:50;;;;;;;1.30;1.30;;;19.20;76.00;;;;;;5127630;27;44191;-71
2023/10/29 07:53:18;;;;;;;1.30;1.30;;;19.20;76.30;;;;;;5130584;27;43775;-71
2023/10/29 07:55:46;;;;;;;1.30;1.30;;;19.10;76.40;;;;;;5128673;27;44277;-72
2023/10/29 07:58:14;;;;;;;1.30;1.30;;;19.10;76.60;;;;;;5122602;27;43985;-72
2023/10/29 08:00:43;;;;;;;1.63;1.43;;;19.00;76.70;;;;;;5130795;27;43382;-71
2023/10/29 08:03:11;;;;;;;1.50;1.30;;;19.00;76.90;;;;;;5129690;27;43602;-72
2023/10/29 08:05:41;;;;;;;1.63;1.57;;;19.00;77.50;;;;;;5130241;27;43776;-71
2023/10/29 08:08:09;;;;;;;1.33;1.33;;;19.10;77.30;;;;;;5130430;27;43415;-71
2023/10/29 08:10:37;;;;;;;1.50;1.50;;;19.20;76.70;;;;;;5130766;27;43947;-72
2023/10/29 08:13:05;;;;;;;1.23;1.20;;;19.40;76.10;;;;;;5128233;27;43976;-72
2023/10/29 08:15:33;;;;;;;1.27;1.27;;;19.60;75.40;;;;;;5124142;27;43496;-72
2023/10/29 08:18:01;;;;;;;1.40;1.30;;;19.80;74.60;;;;;;5130091;27;43464;-71
2023/10/29 08:20:30;;;;;;;1.50;1.50;;;20.00;74.00;;;;;;5129697;27;43460;-72
2023/10/29 08:22:59;;;;;;;1.30;1.30;;;20.20;74.20;;;;;;5125962;27;44180;-72
2023/10/29 08:25:27;;;;;;;1.50;1.40;;;20.30;73.00;;;;;;5129561;27;43397;-72
2023/10/29 08:27:55;;;;;;;1.30;1.30;;;20.40;72.70;;;;;;5127751;27;43395;-71
2023/10/29 08:30:23;;;;;;;1.40;1.40;;;20.50;72.50;;;;;;5130132;27;43392;-71
2023/10/29 08:32:51;;;;;;;1.20;1.20;;;20.40;72.30;;;;;;5127359;27;45509;-71
2023/10/29 08:35:20;;;;;;;1.10;1.10;;;20.30;72.50;;;;;;5129523;27;43386;-71
2023/10/29 08:37:48;;;;;;;1.30;1.30;;;20.20;72.90;;;;;;5129699;27;43364;-71
2023/10/29 08:40:17;;;;;;;1.10;1.10;;;20.00;73.50;;;;;;5128139;27;43520;-71
2023/10/29 08:42:45;;;;;;;1.30;1.30;;;19.90;74.00;;;;;;5126866;27;45669;-70
2023/10/29 08:45:13;;;;;;;1.20;1.20;;;19.80;74.10;;;;;;5129691;27;43396;-70
2023/10/29 08:47:54;;;;;;;1.43;1.33;;;19.80;74.40;;;;;;5129008;27;43853;-71
2023/10/29 08:50:22;;;;;;;1.20;1.20;;;19.60;74.70;;;;;;5130122;27;43357;-70
2023/10/29 08:52:50;;;;;;;1.37;1.37;;;19.50;75.00;;;;;;5126352;27;43938;-71
2023/10/29 08:55:19;;;;;;;1.40;1.40;;;19.50;75.80;;;;;;5123030;27;43444;-71
2023/10/29 08:57:47;;;;;;;1.17;1.17;;;19.50;75.70;;;;;;5124288;27;43494;-68
2023/10/29 09:00:15;;;;;;;1.30;1.30;;;19.50;75.40;;;;;;5130432;27;44014;-68
2023/10/29 09:02:43;;;;;;;1.27;1.27;;;19.60;75.00;;;;;;5130005;27;43605;-69
2023/10/29 09:05:12;;;;;;;1.30;1.30;;;19.70;74.70;;;;;;5129809;27;43355;-68
2023/10/29 09:07:40;;;;;;;1.30;1.30;;;19.70;74.60;;;;;;5128502;27;43455;-68
2023/10/29 09:10:09;;;;;;;1.20;1.20;;;19.70;75.50;;;;;;5127174;27;43436;-68
2023/10/29 09:12:38;;;;;;;1.33;1.33;;;19.60;74.90;;;;;;5129608;27;43599;-68
2023/10/29 09:15:07;;;;;;;1.10;1.10;;;19.50;75.10;;;;;;5129809;27;43401;-68
2023/10/29 09:17:35;;;;;;;1.30;1.30;;;19.40;75.80;;;;;;5125812;27;43346;-68
2023/10/29 09:20:04;;;;;;;1.00;1.00;;;19.40;76.00;;;;;;5128688;27;43488;-68
2023/10/29 09:22:32;;;;;;;1.40;1.40;;;19.30;75.90;;;;;;5122730;27;44646;-68
2023/10/29 09:25:00;;;;;;;1.20;1.20;;;19.30;75.90;;;;;;5129904;27;43354;-68
2023/10/29 09:27:28;;;;;;;1.03;1.03;;;19.20;75.90;;;;;;5129750;27;43377;-68
2023/10/29 09:29:57;;;;;;;1.33;1.30;;;19.20;76.60;;;;;;5130162;27;43952;-68
2023/10/29 09:32:25;;;;;;;1.20;1.20;;;19.20;76.70;;;;;;5129656;27;43872;-68
2023/10/29 09:34:54;;;;;;;1.40;1.40;;;19.20;76.60;;;;;;5129356;27;43896;-68
2023/10/29 09:37:23;;;;;;;1.37;1.33;;;19.20;76.50;;;;;;5132168;27;43424;-70
2023/10/29 09:39:51;;;;;;;1.27;1.27;;;19.10;76.50;;;;;;5136004;27;43400;-70
2023/10/29 09:42:19;;;;;;;1.40;1.40;;;19.10;76.70;;;;;;5138062;27;43615;-70
2023/10/29 09:44:47;;;;;;;1.50;1.50;;;19.10;77.20;;;;;;5135387;27;45079;-70
2023/10/29 09:47:17;;;;;;;1.10;1.10;;;19.10;76.90;;;;;;5137571;27;43317;-70
2023/10/29 09:49:45;;;;;;;1.03;1.03;;;19.30;76.60;;;;;;5136047;27;45154;-70
2023/10/29 09:52:13;;;;;;;1.17;1.17;;;19.40;76.10;;;;;;5131291;27;43834;-70
2023/10/29 09:54:41;;;;;;;1.20;1.20;;;19.50;75.60;;;;;;5135050;27;44711;-70
2023/10/29 09:57:09;;;;;;;1.00;1.00;;;19.50;75.40;;;;;;5132239;27;43439;-70
2023/10/29 09:59:37;;;;;;;1.30;1.30;;;19.50;75.40;;;;;;5137964;27;43462;-70
2023/10/29 10:02:05;;;;;;;1.20;1.20;;;19.40;75.50;;;;;;5137242;27;43586;-70
2023/10/29 10:04:37;;;;;;;1.10;1.10;;;19.40;75.70;;;;;;5125945;27;44357;-70
2023/10/29 10:07:05;;;;;;;1.17;1.17;;;19.30;76.50;;;;;;5126510;27;43500;-70
2023/10/29 10:09:51;;;;;;;1.20;1.20;;;19.30;76.50;;;;;;5130782;27;43377;-71
2023/10/29 10:12:20;;;;;;;0.90;0.90;;;19.20;76.30;;;;;;5123325;27;43713;-70
2023/10/29 10:14:49;;;;;;;1.20;1.20;;;19.20;76.30;;;;;;5123744;27;44061;-70
2023/10/29 10:17:17;;;;;;;1.10;1.10;;;19.20;76.50;;;;;;5126736;27;43430;-70
2023/10/29 10:19:46;;;;;;;1.03;1.03;;;19.10;77.00;;;;;;5124818;27;44018;-71
2023/10/29 10:22:16;;;;;;;1.10;1.10;;;19.10;77.10;;;;;;5126675;27;43638;-71
2023/10/29 10:24:44;;;;;;;1.10;1.10;;;19.10;76.90;;;;;;5130932;27;43976;-70
2023/10/29 10:27:16;;;;;;;1.10;1.10;;;19.10;76.80;;;;;;5128635;27;43459;-71
2023/10/29 10:29:45;;;;;;;1.20;1.20;;;19.10;76.80;;;;;;5125913;27;43397;-70
2023/10/29 10:32:14;;;;;;;1.33;1.33;;;19.10;77.10;;;;;;5130450;27;43917;-70
2023/10/29 10:34:51;;;;;;;1.20;1.20;;;19.10;77.50;;;;;;5125145;27;44295;-71
2023/10/29 10:37:24;;;;;;;1.20;1.20;;;19.10;77.10;;;;;;5129665;27;43428;-71
2023/10/29 10:39:52;;;;;;;1.00;1.00;;;19.30;76.70;;;;;;5125684;27;44016;-71
2023/10/29 10:42:24;;;;;;;1.17;1.17;;;19.40;76.20;;;;;;5129940;27;43617;-71
2023/10/29 10:44:53;;;;;;;1.10;1.10;;;19.50;75.90;;;;;;5127732;27;43432;-70
2023/10/29 10:47:22;;;;;;;1.10;1.10;;;19.50;75.70;;;;;;5123640;27;43511;-68
2023/10/29 10:49:51;;;;;;;1.00;1.00;;;19.40;75.70;;;;;;5128919;27;43996;-69
2023/10/29 10:52:19;;;;;;;1.10;1.10;;;19.30;75.80;;;;;;5131813;27;43855;-68
2023/10/29 10:54:47;;;;;;;1.00;1.00;;;19.30;76.10;;;;;;5128704;27;43395;-68
2023/10/29 10:57:15;;;;;;;1.00;1.00;;;19.20;76.70;;;;;;5122512;27;43307;-69
2023/10/29 10:59:43;;;;;;;1.03;1.03;;;19.20;76.60;;;;;;5128786;27;43576;-68
2023/10/29 11:02:12;;;;;;;0.87;0.87;;;19.20;76.50;;;;;;5125434;27;43886;-68
2023/10/29 11:04:41;;;;;;;1.00;1.00;;;19.10;76.50;;;;;;5128517;27;43398;-68
2023/10/29 11:07:10;;;;;;;1.10;1.10;;;19.10;76.60;;;;;;5131346;27;43381;-68
2023/10/29 11:09:38;;;;;;;1.00;1.00;;;19.10;77.20;;;;;;5118768;27;43467;-68
2023/10/29 11:12:07;;;;;;;0.93;0.93;;;19.10;77.20;;;;;;5125129;27;45581;-68
2023/10/29 11:14:35;;;;;;;1.10;1.10;;;19.10;77.00;;;;;;5125420;27;44416;-69
2023/10/29 11:17:03;;;;;;;0.90;0.90;;;19.10;76.90;;;;;;5124190;27;43444;-68
2023/10/29 11:19:39;;;;;;;1.03;1.03;;;19.10;77.00;;;;;;5125672;27;43405;-68
2023/10/29 11:22:31;;;;;;;1.00;1.00;;;19.00;77.10;;;;;;5127530;27;43571;-68
2023/10/29 11:25:40;;;;;;;1.30;1.30;;;19.00;77.60;;;;;;5120859;27;43866;-70
2023/10/29 11:28:39;;;;;;;1.20;1.20;;;19.10;77.20;;;;;;5130268;27;43433;-67
2023/10/29 11:31:17;;;;;;;1.10;1.10;;;19.30;76.70;;;;;;5117753;27;44080;-68
2023/10/29 11:33:46;;;;;;;0.93;0.93;;;19.40;76.00;;;;;;5122442;27;43594;-68
2023/10/29 11:36:30;;;;;;;1.10;1.10;;;19.50;75.90;;;;;;5131216;27;43475;-69
2023/10/29 11:39:32;;;;;;;0.90;0.90;;;19.50;75.80;;;;;;5129206;27;43435;-68
2023/10/29 11:42:00;;;;;;;1.03;1.03;;;19.40;75.90;;;;;;5124560;27;43616;-68
2023/10/29 11:44:29;;;;;;;1.10;1.10;;;19.30;76.10;;;;;;5122677;27;43876;-68
2023/10/29 11:47:04;;;;;;;0.90;0.90;;;19.20;76.80;;;;;;5127929;27;43468;-67
2023/10/29 11:50:12;;;;;;;0.90;0.90;;;19.20;76.80;;;;;;5124398;27;43530;-68
2023/10/29 11:52:43;;;;;;;0.93;0.93;;;19.20;76.60;;;;;;5126951;27;43436;-67
2023/10/29 11:55:13;;;;;;;0.90;0.90;;;19.10;76.10;;;;;;5128015;27;43603;-68
2023/10/29 11:57:47;;;;;;;0.90;0.90;;;19.10;76.70;;;;;;5128988;27;43394;-69
2023/10/29 12:00:16;;;;;;;0.97;0.97;;;19.10;77.40;;;;;;5132204;27;44047;-70
2023/10/29 12:02:45;;;;;;;0.93;0.93;;;19.10;77.30;;;;;;5130863;27;43459;-70
2023/10/29 12:05:15;;;;;;;1.00;1.00;;;19.20;77.00;;;;;;5126997;27;45698;-70
2023/10/29 12:07:43;;;;;;;0.83;0.83;;;19.30;76.70;;;;;;5129379;27;43361;-70
2023/10/29 12:10:12;;;;;;;1.10;1.10;;;19.30;76.40;;;;;;5134426;27;43437;-70
2023/10/29 12:12:41;;;;;;;1.10;1.10;;;19.30;76.50;;;;;;5128452;27;43536;-70
2023/10/29 12:15:15;;;;;;;1.00;1.00;;;19.20;76.70;;;;;;5128728;27;44000;-69
2023/10/29 12:17:45;;;;;;;0.87;0.87;;;19.20;76.60;;;;;;5126793;27;43887;-70
2023/10/29 12:20:21;;;;;;;0.90;0.90;;;19.20;76.50;;;;;;5127312;27;43449;-70
2023/10/29 12:22:54;;;;;;;0.90;0.90;;;19.20;76.50;;;;;;5131911;27;43434;-69
2023/10/29 12:25:24;;;;;;;0.90;0.90;;;19.10;76.60;;;;;;5133954;27;43823;-70
2023/10/29 12:27:52;;;;;;;1.00;1.00;;;19.10;77.20;;;;;;5124104;27;43498;-72
2023/10/29 12:30:40;;;;;;;1.03;1.03;;;19.10;77.10;;;;;;5125378;27;43372;-71
2023/10/29 12:33:22;;;;;;;1.00;1.00;;;19.10;76.90;;;;;;5124326;27;44012;-71
2023/10/29 12:35:51;;;;;;;0.90;0.90;;;19.10;76.90;;;;;;5125976;27;43870;-70
2023/10/29 12:38:21;;;;;;;0.90;0.90;;;19.10;77.10;;;;;;5129469;27;43875;-72
2023/10/29 12:41:08;;;;;;;0.80;0.80;;;19.00;77.50;;;;;;5123176;27;44474;-72
2023/10/29 12:43:36;;;;;;;0.93;0.93;;;19.10;77.40;;;;;;5123707;27;43379;-72
2023/10/29 12:46:08;;;;;;;0.90;0.90;;;19.20;76.90;;;;;;5127304;27;43611;-72
2023/10/29 12:48:36;;;;;;;1.13;1.00;;;19.30;76.70;;;;;;5121028;27;43520;-72
2023/10/29 12:51:04;;;;;;;0.90;0.90;;;19.30;76.40;;;;;;5128273;27;43919;-72
2023/10/29 12:53:32;;;;;;;0.90;0.90;;;19.30;76.80;;;;;;5126257;27;43398;-72
2023/10/29 12:56:01;;;;;;;0.83;0.83;;;19.30;76.90;;;;;;5125965;27;43877;-72
2023/10/29 12:58:31;;;;;;;1.10;1.10;;;19.30;76.70;;;;;;5118730;27;45038;-72
2023/10/29 13:00:59;;;;;;;0.90;0.90;;;19.20;76.50;;;;;;5128266;27;43746;-72